createdAt,value
2024-01-05T00:01:40.425Z,49.37
2024-01-05T00:04:07.250Z,48.83
2024-01-05T00:06:39.079Z,38.77
2024-01-05T00:09:07.326Z,38.73
2024-01-05T00:11:34.138Z,35.70
2024-01-05T00:14:00.878Z,40.50
2024-01-05T00:16:27.606Z,35.27
2024-01-05T00:18:54.439Z,36.90
2024-01-05T00:21:26.493Z,44.90
2024-01-05T00:23:56.733Z,29.83
2024-01-05T00:26:23.729Z,37.83
2024-01-05T00:28:54.585Z,83.17
2024-01-05T00:31:21.457Z,71.27
2024-01-05T00:33:48.419Z,65.00
2024-01-05T00:36:15.400Z,57.90
2024-01-05T00:38:48.458Z,41.73
2024-01-05T00:41:15.594Z,51.57
2024-01-05T00:43:43.505Z,43.70
2024-01-05T00:46:10.709Z,46.03
2024-01-05T00:48:38.028Z,59.47
2024-01-05T00:51:05.133Z,57.17
2024-01-05T00:53:31.875Z,51.37
2024-01-05T00:55:58.556Z,39.37
2024-01-05T00:58:25.273Z,43.90
2024-01-05T01:00:52.103Z,28.97
2024-01-05T01:03:18.986Z,31.20
2024-01-05T01:05:46.783Z,24.43
2024-01-05T01:08:16.313Z,36.03
2024-01-05T01:10:43.041Z,42.70
2024-01-05T01:13:11.486Z,34.40
2024-01-05T01:15:38.227Z,31.17
2024-01-05T01:18:05.668Z,27.47
2024-01-05T01:20:32.546Z,27.80
2024-01-05T01:22:59.230Z,25.70
2024-01-05T01:25:25.996Z,24.40
2024-01-05T01:27:52.709Z,33.60
2024-01-05T01:30:19.556Z,33.10
2024-01-05T01:32:46.420Z,24.57
2024-01-05T01:35:13.128Z,18.07
2024-01-05T01:37:39.893Z,24.33
2024-01-05T01:40:07.381Z,23.27
2024-01-05T01:42:34.353Z,17.93
2024-01-05T01:45:01.753Z,25.50
2024-01-05T01:47:29.632Z,22.73
2024-01-05T01:49:58.117Z,22.33
2024-01-05T01:52:25.817Z,30.70
2024-01-05T01:54:52.782Z,28.23
2024-01-05T01:57:20.223Z,23.17
2024-01-05T01:59:47.597Z,24.13
2024-01-05T02:02:14.987Z,28.33
2024-01-05T02:04:42.767Z,34.67
2024-01-05T02:07:09.829Z,26.70
2024-01-05T02:09:36.738Z,26.67
2024-01-05T02:12:03.920Z,25.10
2024-01-05T02:14:30.791Z,18.43
2024-01-05T02:16:57.569Z,29.10
2024-01-05T02:19:25.719Z,24.00
2024-01-05T02:21:56.174Z,22.67
2024-01-05T02:24:23.107Z,20.37
2024-01-05T02:26:50.442Z,20.07
2024-01-05T02:29:23.469Z,21.00
2024-01-05T02:31:51.862Z,20.13
2024-01-05T02:34:18.887Z,23.13
2024-01-05T02:36:45.965Z,30.83
2024-01-05T02:39:13.753Z,44.97
2024-01-05T02:41:40.529Z,42.87
2024-01-05T02:44:07.228Z,50.00
2024-01-05T02:46:36.607Z,35.43
2024-01-05T02:49:03.624Z,24.30
2024-01-05T02:51:30.657Z,24.67
2024-01-05T02:53:57.619Z,19.73
2024-01-05T02:56:24.534Z,21.33
2024-01-05T02:58:54.631Z,17.20
2024-01-05T03:01:21.513Z,22.47
2024-01-05T03:03:51.558Z,26.67
2024-01-05T03:06:20.409Z,49.90
2024-01-05T03:08:47.760Z,24.30
2024-01-05T03:11:14.599Z,20.53
2024-01-05T03:13:41.556Z,32.50
2024-01-05T03:16:08.814Z,26.83
2024-01-05T03:18:35.675Z,29.90
2024-01-05T03:21:02.777Z,26.53
2024-01-05T03:23:29.549Z,23.07
2024-01-05T03:25:58.153Z,52.57
2024-01-05T03:28:25.769Z,58.00
2024-01-05T03:30:53.365Z,40.33
2024-01-05T03:33:23.104Z,43.60
2024-01-05T03:35:49.937Z,41.33
2024-01-05T03:38:16.664Z,44.03
2024-01-05T03:40:43.670Z,52.63
2024-01-05T03:43:10.545Z,59.97
2024-01-05T03:45:37.849Z,81.50
2024-01-05T03:48:05.585Z,45.47
2024-01-05T03:50:36.451Z,43.67
2024-01-05T03:53:03.995Z,39.37
2024-01-05T03:55:30.686Z,32.93
2024-01-05T03:57:57.381Z,21.50
2024-01-05T04:00:24.092Z,31.23
2024-01-05T04:02:50.868Z,23.27
2024-01-05T04:05:17.713Z,28.97
2024-01-05T04:07:45.505Z,28.47
2024-01-05T04:10:12.362Z,31.07
2024-01-05T04:12:39.208Z,30.23
2024-01-05T04:15:06.753Z,30.53
2024-01-05T04:17:33.501Z,87.27
2024-01-05T04:20:00.260Z,42.63
2024-01-05T04:22:32.362Z,67.53
2024-01-05T04:25:00.095Z,36.47
2024-01-05T04:27:26.843Z,21.57
2024-01-05T04:29:53.632Z,27.67
2024-01-05T04:32:20.376Z,25.93
2024-01-05T04:34:47.191Z,30.33
2024-01-05T04:37:15.324Z,25.47
2024-01-05T04:39:44.475Z,34.03
2024-01-05T04:42:16.025Z,32.23
2024-01-05T04:44:43.725Z,40.20
2024-01-05T04:47:10.427Z,32.37
2024-01-05T04:49:37.187Z,24.13
2024-01-05T04:52:04.132Z,36.87
2024-01-05T04:54:30.954Z,39.47
2024-01-05T04:56:59.796Z,32.90
2024-01-05T04:59:29.344Z,39.67
2024-01-05T05:01:56.087Z,44.13
2024-01-05T05:04:22.765Z,47.90
2024-01-05T05:06:49.484Z,43.93
2024-01-05T05:09:16.176Z,49.43
2024-01-05T05:11:43.152Z,41.43
2024-01-05T05:14:10.112Z,26.97
2024-01-05T05:16:36.875Z,57.50
2024-01-05T05:19:05.591Z,47.33
2024-01-05T05:21:33.235Z,35.37
2024-01-05T05:24:00.104Z,36.53
2024-01-05T05:26:26.981Z,32.90
2024-01-05T05:28:54.026Z,42.37
2024-01-05T05:31:20.887Z,39.97
2024-01-05T05:33:51.172Z,42.97
2024-01-05T05:36:18.268Z,50.63
2024-01-05T05:38:46.193Z,43.87
2024-01-05T05:41:13.456Z,41.30
2024-01-05T05:43:41.495Z,32.93
2024-01-05T05:46:08.256Z,44.07
2024-01-05T05:48:36.605Z,48.50
2024-01-05T05:51:05.525Z,55.93
2024-01-05T05:53:32.695Z,74.80
2024-01-05T05:55:59.389Z,78.20
2024-01-05T05:58:27.502Z,61.83
2024-01-05T06:00:54.358Z,62.37
2024-01-05T06:03:24.411Z,65.57
2024-01-05T06:05:51.458Z,55.87
2024-01-05T06:08:18.158Z,55.77
2024-01-05T06:10:44.998Z,54.70
2024-01-05T06:13:12.061Z,52.37
2024-01-05T06:15:38.978Z,58.17
2024-01-05T06:18:05.913Z,71.93
2024-01-05T06:20:32.743Z,59.00
2024-01-05T06:22:59.514Z,52.87
2024-01-05T06:25:26.332Z,66.13
2024-01-05T06:27:54.503Z,50.90
2024-01-05T06:30:21.430Z,62.87
2024-01-05T06:32:48.238Z,70.03
2024-01-05T06:35:15.049Z,73.73
2024-01-05T06:37:41.790Z,71.43
2024-01-05T06:40:09.300Z,73.10
2024-01-05T06:42:36.026Z,57.13
2024-01-05T06:45:02.933Z,51.33
2024-01-05T06:47:29.735Z,55.77
2024-01-05T06:49:56.750Z,52.83
2024-01-05T06:52:23.543Z,40.10
2024-01-05T06:54:50.260Z,42.60
2024-01-05T06:57:17.038Z,50.80
2024-01-05T06:59:43.719Z,65.03
2024-01-05T07:02:10.464Z,70.40
2024-01-05T07:04:39.757Z,61.70
2024-01-05T07:07:06.404Z,65.60
2024-01-05T07:09:33.300Z,60.08
2024-01-05T07:12:00.951Z,60.80
2024-01-05T07:14:29.013Z,49.53
2024-01-05T07:16:57.350Z,44.97
2024-01-05T07:19:24.260Z,51.83
2024-01-05T07:21:51.291Z,48.72
2024-01-05T07:24:20.024Z,48.95
2024-01-05T07:26:47.071Z,39.60
2024-01-05T07:29:13.810Z,41.40
2024-01-05T07:31:40.802Z,46.33
2024-01-05T07:34:08.592Z,44.47
2024-01-05T07:36:36.483Z,42.78
2024-01-05T07:39:04.671Z,47.88
2024-01-05T07:41:31.436Z,42.03
2024-01-05T07:43:58.576Z,43.10
2024-01-05T07:46:28.361Z,41.97
2024-01-05T07:48:56.102Z,41.10
2024-01-05T07:51:23.596Z,39.72
2024-01-05T07:53:50.459Z,49.30
2024-01-05T07:56:18.811Z,72.10
2024-01-05T07:58:46.103Z,75.15
2024-01-05T08:01:19.561Z,46.13
2024-01-05T08:03:47.193Z,36.83
2024-01-05T08:06:17.416Z,41.78
2024-01-05T08:08:48.839Z,54.15
2024-01-05T08:11:16.022Z,52.70
2024-01-05T08:13:44.057Z,58.90
2024-01-05T08:16:11.496Z,56.75
2024-01-05T08:18:40.625Z,55.33
2024-01-05T08:21:07.426Z,55.25
2024-01-05T08:23:34.874Z,52.42
2024-01-05T08:26:04.871Z,51.20
2024-01-05T08:28:31.870Z,44.10
2024-01-05T08:30:59.579Z,57.80
2024-01-05T08:33:26.770Z,66.72
2024-01-05T08:35:53.660Z,59.25
2024-01-05T08:38:20.481Z,44.45
2024-01-05T08:40:47.465Z,46.83
2024-01-05T08:43:14.244Z,50.13
2024-01-05T08:45:41.130Z,48.75
2024-01-05T08:48:08.067Z,45.97
2024-01-05T08:50:36.321Z,39.70
2024-01-05T08:53:03.377Z,24.58
2024-01-05T08:55:30.433Z,27.73
2024-01-05T08:57:58.492Z,23.90
2024-01-05T09:00:26.294Z,32.17
2024-01-05T09:02:53.376Z,32.33
2024-01-05T09:05:20.598Z,39.17
2024-01-05T09:07:48.978Z,37.92
2024-01-05T09:10:16.015Z,42.25
2024-01-05T09:12:42.988Z,37.35
2024-01-05T09:15:10.246Z,38.30
2024-01-05T09:17:39.146Z,44.70
2024-01-05T09:20:06.689Z,44.05
2024-01-05T09:22:35.792Z,35.25
2024-01-05T09:25:02.515Z,38.28
2024-01-05T09:27:29.575Z,24.05
2024-01-05T09:29:56.345Z,38.42
2024-01-05T09:32:23.717Z,45.67
2024-01-05T09:34:50.986Z,53.15
2024-01-05T09:37:17.794Z,42.08
2024-01-05T09:39:44.527Z,33.92
2024-01-05T09:42:11.582Z,32.58
2024-01-05T09:44:38.581Z,31.13
2024-01-05T09:47:05.858Z,17.52
2024-01-05T09:49:36.901Z,14.95
2024-01-05T09:52:04.123Z,11.18
2024-01-05T09:54:31.052Z,12.23
2024-01-05T09:56:58.023Z,8.05
2024-01-05T09:59:26.939Z,14.45
2024-01-05T10:01:55.221Z,7.20
2024-01-05T10:04:22.061Z,5.50
2024-01-05T10:06:59.983Z,4.10
2024-01-05T10:09:26.752Z,8.07
2024-01-05T10:11:53.482Z,11.52
2024-01-05T10:14:26.327Z,8.98
2024-01-05T10:17:08.723Z,5.82
2024-01-05T10:19:36.550Z,5.05
2024-01-05T10:22:16.066Z,8.50
2024-01-05T10:24:43.686Z,8.55
2024-01-05T10:27:12.856Z,8.75
2024-01-05T10:29:44.999Z,9.13
2024-01-05T10:32:21.876Z,8.23
2024-01-05T10:34:51.965Z,11.90
2024-01-05T10:37:21.223Z,7.70
2024-01-05T10:39:54.206Z,10.55
2024-01-05T10:42:30.903Z,7.32
2024-01-05T10:44:59.854Z,8.07
2024-01-05T10:47:28.458Z,23.95
2024-01-05T10:49:57.847Z,21.52
2024-01-05T10:52:32.591Z,15.38
2024-01-05T10:55:04.434Z,15.18
2024-01-05T10:57:33.255Z,20.08
2024-01-05T11:00:00.694Z,23.27
2024-01-05T11:03:05.662Z,22.58
2024-01-05T11:05:32.812Z,14.68
2024-01-05T11:08:02.234Z,15.43
2024-01-05T11:10:40.600Z,15.57
2024-01-05T11:13:48.879Z,13.98
2024-01-05T11:16:33.345Z,21.17
2024-01-05T11:19:00.254Z,22.25
2024-01-05T11:21:56.494Z,15.88
2024-01-05T11:24:25.263Z,10.80
2024-01-05T11:26:53.444Z,4.93
2024-01-05T11:29:52.654Z,8.18
2024-01-05T11:32:46.782Z,6.32
2024-01-05T11:35:22.472Z,8.95
2024-01-05T11:37:49.922Z,2.95
2024-01-05T11:40:37.312Z,7.32
2024-01-05T11:43:30.175Z,5.50
2024-01-05T11:45:57.347Z,2.10
2024-01-05T11:48:37.378Z,2.60
2024-01-05T11:51:08.373Z,9.40
2024-01-05T11:53:35.291Z,6.75
2024-01-05T11:56:04.628Z,1.55
2024-01-05T11:58:33.452Z,2.70
2024-01-05T12:01:01.516Z,4.45
2024-01-05T12:03:28.810Z,3.35
2024-01-05T12:06:01.932Z,7.82
2024-01-05T12:08:29.379Z,12.73
2024-01-05T12:11:04.145Z,6.25
2024-01-05T12:13:34.256Z,5.68
2024-01-05T12:16:03.926Z,12.57
2024-01-05T12:18:37.770Z,5.38
2024-01-05T12:21:07.961Z,1.58
2024-01-05T12:23:35.762Z,0.60
2024-01-05T12:26:04.972Z,6.10
2024-01-05T12:28:36.093Z,3.17
2024-01-05T12:31:04.588Z,7.50
2024-01-05T12:33:34.381Z,3.47
2024-01-05T12:36:01.192Z,1.65
2024-01-05T12:38:34.398Z,7.15
2024-01-05T12:41:18.719Z,0.28
2024-01-05T12:43:51.463Z,0.20
2024-01-05T12:46:20.195Z,1.08
2024-01-05T12:48:47.208Z,0.30
2024-01-05T12:51:21.704Z,0.98
2024-01-05T12:53:58.717Z,5.50
2024-01-05T12:56:27.966Z,9.25
2024-01-05T12:58:54.681Z,7.45
2024-01-05T13:01:23.675Z,4.40
2024-01-05T13:03:57.261Z,4.15
2024-01-05T13:06:27.150Z,6.80
2024-01-05T13:08:54.441Z,1.63
2024-01-05T13:11:22.238Z,2.17
2024-01-05T13:13:54.124Z,3.00
2024-01-05T13:16:21.489Z,2.60
2024-01-05T13:18:49.003Z,7.75
2024-01-05T13:21:16.496Z,6.82
2024-01-05T13:23:45.736Z,4.03
2024-01-05T13:26:12.627Z,2.10
2024-01-05T13:28:41.644Z,3.85
2024-01-05T13:31:08.878Z,4.43
2024-01-05T13:33:36.368Z,10.15
2024-01-05T13:36:03.615Z,8.15
2024-01-05T13:38:30.560Z,4.13
2024-01-05T13:40:57.540Z,3.08
2024-01-05T13:43:26.286Z,11.13
2024-01-05T13:45:55.807Z,7.63
2024-01-05T13:48:23.178Z,6.97
2024-01-05T13:50:50.666Z,3.40
2024-01-05T13:53:17.538Z,20.90
2024-01-05T13:55:44.513Z,13.05
2024-01-05T13:58:11.272Z,3.97
2024-01-05T14:00:38.149Z,4.22
2024-01-05T14:03:05.610Z,4.63
2024-01-05T14:05:32.660Z,56.15
2024-01-05T14:08:00.587Z,2.58
2024-01-05T14:10:28.176Z,4.07
2024-01-05T14:12:56.935Z,7.20
2024-01-05T14:15:26.143Z,7.88
2024-01-05T14:17:53.082Z,4.60
2024-01-05T14:20:20.264Z,7.30
2024-01-05T14:22:47.137Z,6.05
2024-01-05T14:25:14.015Z,4.40
2024-01-05T14:27:41.769Z,4.18
2024-01-05T14:30:09.666Z,4.60
2024-01-05T14:32:36.601Z,22.40
2024-01-05T14:35:06.865Z,9.95
2024-01-05T14:37:34.209Z,6.40
2024-01-05T14:40:01.076Z,6.68
2024-01-05T14:42:27.750Z,8.60
2024-01-05T14:44:55.152Z,2.33
2024-01-05T14:47:22.037Z,6.50
2024-01-05T14:49:49.475Z,23.55
2024-01-05T14:52:16.334Z,11.82
2024-01-05T14:54:43.582Z,16.40
2024-01-05T14:57:10.332Z,21.42
2024-01-05T14:59:37.796Z,17.35
2024-01-05T15:02:04.531Z,17.20
2024-01-05T15:04:32.874Z,21.10
2024-01-05T15:07:01.855Z,13.27
2024-01-05T15:09:28.984Z,19.25
2024-01-05T15:11:55.720Z,18.13
2024-01-05T15:14:22.523Z,45.80
2024-01-05T15:16:51.514Z,61.88
2024-01-05T15:19:19.632Z,44.45
2024-01-05T15:21:46.593Z,48.97
2024-01-05T15:24:13.726Z,51.20
2024-01-05T15:26:47.090Z,48.28
2024-01-05T15:29:15.069Z,48.78
2024-01-05T15:31:42.056Z,54.90
2024-01-05T15:34:09.181Z,56.03
2024-01-05T15:36:36.214Z,44.22
2024-01-05T15:39:03.414Z,47.15
2024-01-05T15:41:30.257Z,62.70
2024-01-05T15:43:58.688Z,59.20
2024-01-05T15:46:28.164Z,76.53
2024-01-05T15:48:56.515Z,83.72
2024-01-05T15:51:26.660Z,69.57
2024-01-05T15:53:56.024Z,75.35
2024-01-05T15:56:24.395Z,84.68
2024-01-05T15:58:53.477Z,93.07
2024-01-05T16:01:20.333Z,68.75
2024-01-05T16:03:48.616Z,96.40
2024-01-05T16:06:20.298Z,96.50
2024-01-05T16:08:49.589Z,90.60
2024-01-05T16:11:17.487Z,81.00
2024-01-05T16:13:44.710Z,89.30
2024-01-05T16:16:16.100Z,104.18
2024-01-05T16:18:45.604Z,103.82
2024-01-05T16:21:13.214Z,105.28
2024-01-05T16:23:41.259Z,108.80
2024-01-05T16:26:08.374Z,111.13
2024-01-05T16:28:35.129Z,126.75
2024-01-05T16:31:01.976Z,151.30
2024-01-05T16:33:31.037Z,84.95
2024-01-05T16:35:58.504Z,102.57
2024-01-05T16:38:25.321Z,81.13
2024-01-05T16:40:56.109Z,64.22
2024-01-05T16:43:22.890Z,49.25
2024-01-05T16:45:49.776Z,90.43
2024-01-05T16:48:17.633Z,80.38
2024-01-05T16:50:45.867Z,78.78
2024-01-05T16:53:12.793Z,80.70
2024-01-05T16:55:39.514Z,69.45
2024-01-05T16:58:09.120Z,88.75
2024-01-05T17:00:36.205Z,80.55
2024-01-05T17:03:04.688Z,89.13
2024-01-05T17:05:31.770Z,82.75
2024-01-05T17:07:58.609Z,78.50
2024-01-05T17:10:25.294Z,75.43
2024-01-05T17:12:52.830Z,77.55
2024-01-05T17:15:21.231Z,72.05
2024-01-05T17:17:48.471Z,75.18
2024-01-05T17:20:22.153Z,87.80
2024-01-05T17:22:52.689Z,101.15
2024-01-05T17:25:19.386Z,107.40
2024-01-05T17:27:47.172Z,106.78
2024-01-05T17:30:17.071Z,101.35
2024-01-05T17:32:48.714Z,98.35
2024-01-05T17:35:15.877Z,165.32
2024-01-05T17:37:42.666Z,145.20
2024-01-05T17:40:09.894Z,132.60
2024-01-05T17:42:36.626Z,114.20
2024-01-05T17:45:04.014Z,120.35
2024-01-05T17:47:31.582Z,117.68
2024-01-05T17:49:59.413Z,129.50
2024-01-05T17:52:27.235Z,115.63
2024-01-05T17:54:54.609Z,79.35
2024-01-05T17:57:25.242Z,88.13
2024-01-05T17:59:52.914Z,105.50
2024-01-05T18:02:20.036Z,79.45
2024-01-05T18:04:46.943Z,99.88
2024-01-05T18:07:18.474Z,104.30
2024-01-05T18:09:46.527Z,108.68
2024-01-05T18:12:13.411Z,98.35
2024-01-05T18:14:40.406Z,115.80
2024-01-05T18:17:07.398Z,98.32
2024-01-05T18:19:34.729Z,122.00
2024-01-05T18:22:02.232Z,115.78
2024-01-05T18:24:29.828Z,103.75
2024-01-05T18:26:56.939Z,127.85
2024-01-05T18:29:29.160Z,132.75
2024-01-05T18:31:58.265Z,129.98
2024-01-05T18:34:26.956Z,121.00
2024-01-05T18:36:54.400Z,61.25
2024-01-05T18:39:21.672Z,62.47
2024-01-05T18:41:48.723Z,46.05
2024-01-05T18:44:17.553Z,55.05
2024-01-05T18:46:46.394Z,54.45
2024-01-05T18:49:17.332Z,60.63
2024-01-05T18:51:44.088Z,66.45
2024-01-05T18:54:10.862Z,69.63
2024-01-05T18:56:39.415Z,119.63
2024-01-05T18:59:06.420Z,73.35
2024-01-05T19:01:33.436Z,64.00
2024-01-05T19:04:00.662Z,73.65
2024-01-05T19:06:28.284Z,82.80
2024-01-05T19:08:55.152Z,104.50
2024-01-05T19:11:22.337Z,72.40
2024-01-05T19:13:49.301Z,88.63
2024-01-05T19:16:20.999Z,78.75
2024-01-05T19:18:48.096Z,103.97
2024-01-05T19:21:15.852Z,97.70
2024-01-05T19:23:43.343Z,99.03
2024-01-05T19:26:14.368Z,102.70
2024-01-05T19:28:41.134Z,92.45
2024-01-05T19:31:08.405Z,94.93
2024-01-05T19:33:37.470Z,100.07
2024-01-05T19:36:13.942Z,126.00
2024-01-05T19:38:43.348Z,136.25
2024-01-05T19:41:13.173Z,115.85
2024-01-05T19:43:40.462Z,122.82
2024-01-05T19:46:08.543Z,147.63
2024-01-05T19:48:36.804Z,133.25
2024-01-05T19:51:04.966Z,146.32
2024-01-05T19:53:33.309Z,160.70
2024-01-05T19:56:01.225Z,158.95
2024-01-05T19:58:27.979Z,185.13
2024-01-05T20:00:55.329Z,183.48
2024-01-05T20:03:23.344Z,153.63
2024-01-05T20:05:52.318Z,177.10
2024-01-05T20:08:19.142Z,150.73
2024-01-05T20:10:45.914Z,163.20
2024-01-05T20:13:14.107Z,152.13
2024-01-05T20:15:42.197Z,155.25
2024-01-05T20:18:09.277Z,145.45
2024-01-05T20:20:36.544Z,141.77
2024-01-05T20:23:03.529Z,153.98
2024-01-05T20:25:31.599Z,147.98
2024-01-05T20:27:58.342Z,129.02
2024-01-05T20:30:27.743Z,122.38
2024-01-05T20:32:56.773Z,107.05
2024-01-05T20:35:23.475Z,101.60
2024-01-05T20:37:51.832Z,94.75
2024-01-05T20:40:19.345Z,94.43
2024-01-05T20:42:47.216Z,95.05
2024-01-05T20:45:14.907Z,85.32
2024-01-05T20:47:43.105Z,82.22
2024-01-05T20:50:10.595Z,79.55
2024-01-05T20:52:37.467Z,85.35
2024-01-05T20:55:04.439Z,110.25
2024-01-05T20:57:32.742Z,100.90
2024-01-05T21:00:00.615Z,98.80
2024-01-05T21:02:27.438Z,99.78
2024-01-05T21:04:54.569Z,91.07
2024-01-05T21:07:22.921Z,96.65
2024-01-05T21:09:49.971Z,84.70
2024-01-05T21:12:16.924Z,88.68
2024-01-05T21:14:44.205Z,99.63
2024-01-05T21:17:10.947Z,105.72
2024-01-05T21:19:41.360Z,74.20
2024-01-05T21:22:08.452Z,61.55
2024-01-05T21:24:42.830Z,56.97
2024-01-05T21:27:13.136Z,57.22
2024-01-05T21:29:42.918Z,62.83
2024-01-05T21:32:09.929Z,57.57
2024-01-05T21:34:41.648Z,58.65
2024-01-05T21:37:08.912Z,59.03
2024-01-05T21:39:36.132Z,55.47
2024-01-05T21:42:03.604Z,56.13
2024-01-05T21:44:30.311Z,69.25
2024-01-05T21:46:59.460Z,73.93
2024-01-05T21:49:27.039Z,71.15
2024-01-05T21:51:55.222Z,82.95
2024-01-05T21:54:22.545Z,74.45
2024-01-05T21:56:49.492Z,69.47
2024-01-05T21:59:16.271Z,38.13
2024-01-05T22:01:47.235Z,41.03
2024-01-05T22:04:14.644Z,21.52
2024-01-05T22:06:41.693Z,22.67
2024-01-05T22:09:12.592Z,28.60
2024-01-05T22:11:44.114Z,17.73
2024-01-05T22:14:14.614Z,30.20
2024-01-05T22:16:42.127Z,15.63
2024-01-05T22:19:11.624Z,29.25
2024-01-05T22:21:38.508Z,17.00
2024-01-05T22:24:05.884Z,16.63
2024-01-05T22:26:35.991Z,9.80
2024-01-05T22:29:06.784Z,24.80
2024-01-05T22:31:34.482Z,6.00
2024-01-05T22:34:01.645Z,5.43
2024-01-05T22:36:28.635Z,18.17
2024-01-05T22:38:55.434Z,13.80
2024-01-05T22:41:23.987Z,7.47
2024-01-05T22:43:53.094Z,52.90
2024-01-05T22:46:21.969Z,41.67
2024-01-05T22:48:49.006Z,45.15
2024-01-05T22:51:30.707Z,39.58
2024-01-05T22:53:57.556Z,24.23
2024-01-05T22:56:24.408Z,48.45
2024-01-05T22:58:51.567Z,42.45
2024-01-05T23:01:24.017Z,15.55
2024-01-05T23:03:54.842Z,9.80
2024-01-05T23:06:26.622Z,33.00
2024-01-05T23:08:55.887Z,35.22
2024-01-05T23:11:24.115Z,27.50
2024-01-05T23:13:50.886Z,42.05
2024-01-05T23:16:23.723Z,18.75
2024-01-05T23:18:50.570Z,37.90
2024-01-05T23:21:17.522Z,42.40
2024-01-05T23:23:44.272Z,31.08
2024-01-05T23:26:18.281Z,32.17
2024-01-05T23:28:45.326Z,57.40
2024-01-05T23:31:12.318Z,34.53
2024-01-05T23:33:39.235Z,36.28
2024-01-05T23:36:06.354Z,35.67
2024-01-05T23:38:33.385Z,30.73
2024-01-05T23:41:00.374Z,26.42
2024-01-05T23:43:27.743Z,29.40
2024-01-05T23:45:54.558Z,34.53
2024-01-05T23:48:21.480Z,33.08
2024-01-05T23:50:48.364Z,6.55
2024-01-05T23:53:15.053Z,34.28
2024-01-05T23:55:42.592Z,55.92
2024-01-05T23:58:10.242Z,40.40
